Terminal Aerodrome Forecast
Issued by NWS

Home | Current Version | Previous Version | Text Only | Print | Product List | Glossary On
Versions: 1 2 3 4 5 6 7 8 9 10 11 12 13 14 15 16
000
FTUS43 KDDC 011008 AAC
TAFHYS
TAF AMD
KHYS 011008Z 0110/0206 31014G18KT P6SM OVC009
     FM011500 36016G26KT P6SM OVC010
     FM020000 01010KT P6SM OVC015
     FM020300 33005KT P6SM VCSH OVC020=

USA.gov is the U.S. government's official web portal to all federal, state and local government web resources and services.